sensor_id;sensor_type;location;lat;lon;timestamp;temperature;humidity
12233;DHT22;6179;51.748;8.728;2024-01-15T00:05:01;0.90;98.30
12233;DHT22;6179;51.748;8.728;2024-01-15T00:11:02;0.90;98.30
12233;DHT22;6179;51.748;8.728;2024-01-15T00:17:02;0.90;98.30
12233;DHT22;6179;51.748;8.728;2024-01-15T00:23:03;0.90;98.30
12233;DHT22;6179;51.748;8.728;2024-01-15T00:29:04;1.10;98.30
12233;DHT22;6179;51.748;8.728;2024-01-15T00:35:07;1.00;98.30
12233;DHT22;6179;51.748;8.728;2024-01-15T00:41:08;1.10;98.30
12233;DHT22;6179;51.748;8.728;2024-01-15T00:47:09;1.10;98.30
12233;DHT22;6179;51.748;8.728;2024-01-15T00:53:09;1.20;98.30
12233;DHT22;6179;51.748;8.728;2024-01-15T00:59:10;1.10;98.30
12233;DHT22;6179;51.748;8.728;2024-01-15T01:05:15;1.10;98.30
12233;DHT22;6179;51.748;8.728;2024-01-15T01:11:16;1.00;98.30
12233;DHT22;6179;51.748;8.728;2024-01-15T01:17:16;1.00;98.30
12233;DHT22;6179;51.748;8.728;2024-01-15T01:23:17;1.10;98.30
12233;DHT22;6179;51.748;8.728;2024-01-15T01:29:18;1.20;98.30
12233;DHT22;6179;51.748;8.728;2024-01-15T01:35:19;1.20;98.30
12233;DHT22;6179;51.748;8.728;2024-01-15T01:41:20;1.40;98.30
12233;DHT22;6179;51.748;8.728;2024-01-15T01:47:20;1.40;98.30
12233;DHT22;6179;51.748;8.728;2024-01-15T01:53:22;1.30;98.30
12233;DHT22;6179;51.748;8.728;2024-01-15T01:59:25;1.30;98.30
12233;DHT22;6179;51.748;8.728;2024-01-15T02:05:28;1.10;98.30
12233;DHT22;6179;51.748;8.728;2024-01-15T02:11:31;1.30;98.30
12233;DHT22;6179;51.748;8.728;2024-01-15T02:17:32;1.30;98.30
12233;DHT22;6179;51.748;8.728;2024-01-15T02:23:33;1.30;98.30
12233;DHT22;6179;51.748;8.728;2024-01-15T02:29:34;1.20;98.30
12233;DHT22;6179;51.748;8.728;2024-01-15T02:35:36;1.20;98.30
12233;DHT22;6179;51.748;8.728;2024-01-15T02:41:36;1.30;98.30
12233;DHT22;6179;51.748;8.728;2024-01-15T02:47:37;1.10;98.30
12233;DHT22;6179;51.748;8.728;2024-01-15T02:53:39;1.40;98.30
12233;DHT22;6179;51.748;8.728;2024-01-15T02:59:39;1.30;98.30
12233;DHT22;6179;51.748;8.728;2024-01-15T03:05:40;1.40;98.30
12233;DHT22;6179;51.748;8.728;2024-01-15T03:11:41;1.20;98.30
12233;DHT22;6179;51.748;8.728;2024-01-15T03:17:42;1.30;98.30
12233;DHT22;6179;51.748;8.728;2024-01-15T03:23:43;1.30;98.30
12233;DHT22;6179;51.748;8.728;2024-01-15T03:29:44;1.30;98.30
12233;DHT22;6179;51.748;8.728;2024-01-15T03:35:44;1.40;98.30
12233;DHT22;6179;51.748;8.728;2024-01-15T03:41:45;1.50;98.30
12233;DHT22;6179;51.748;8.728;2024-01-15T03:47:46;1.30;98.30
12233;DHT22;6179;51.748;8.728;2024-01-15T03:53:47;1.40;98.30
12233;DHT22;6179;51.748;8.728;2024-01-15T03:59:47;1.40;98.30
12233;DHT22;6179;51.748;8.728;2024-01-15T04:05:48;1.40;98.30
12233;DHT22;6179;51.748;8.728;2024-01-15T04:11:49;1.40;98.30
12233;DHT22;6179;51.748;8.728;2024-01-15T04:17:50;1.50;98.30
12233;DHT22;6179;51.748;8.728;2024-01-15T04:23:51;1.80;98.30
12233;DHT22;6179;51.748;8.728;2024-01-15T04:29:51;1.80;98.30
12233;DHT22;6179;51.748;8.728;2024-01-15T04:35:53;1.40;98.30
12233;DHT22;6179;51.748;8.728;2024-01-15T04:41:54;1.50;98.30
12233;DHT22;6179;51.748;8.728;2024-01-15T04:47:55;1.30;98.30
12233;DHT22;6179;51.748;8.728;2024-01-15T04:53:58;1.40;98.30
12233;DHT22;6179;51.748;8.728;2024-01-15T04:59:59;1.50;98.30
12233;DHT22;6179;51.748;8.728;2024-01-15T05:06:00;1.60;98.30
12233;DHT22;6179;51.748;8.728;2024-01-15T05:12:00;1.50;98.30
12233;DHT22;6179;51.748;8.728;2024-01-15T05:18:01;1.30;98.30
12233;DHT22;6179;51.748;8.728;2024-01-15T05:24:02;1.40;98.30
12233;DHT22;6179;51.748;8.728;2024-01-15T05:30:03;1.10;98.30
12233;DHT22;6179;51.748;8.728;2024-01-15T05:36:05;0.90;98.30
12233;DHT22;6179;51.748;8.728;2024-01-15T05:42:06;1.00;98.30
12233;DHT22;6179;51.748;8.728;2024-01-15T05:48:07;1.10;98.30
12233;DHT22;6179;51.748;8.728;2024-01-15T05:54:08;0.90;98.30
12233;DHT22;6179;51.748;8.728;2024-01-15T06:00:09;1.20;98.30
12233;DHT22;6179;51.748;8.728;2024-01-15T06:06:10;0.90;98.30
12233;DHT22;6179;51.748;8.728;2024-01-15T06:12:11;1.10;98.30
12233;DHT22;6179;51.748;8.728;2024-01-15T06:18:12;1.20;98.30
12233;DHT22;6179;51.748;8.728;2024-01-15T06:24:12;1.10;98.30
12233;DHT22;6179;51.748;8.728;2024-01-15T06:30:15;1.00;98.30
12233;DHT22;6179;51.748;8.728;2024-01-15T06:36:16;0.80;98.30
12233;DHT22;6179;51.748;8.728;2024-01-15T06:42:17;1.00;98.30
12233;DHT22;6179;51.748;8.728;2024-01-15T06:48:18;0.90;98.30
12233;DHT22;6179;51.748;8.728;2024-01-15T06:54:18;1.10;98.30
12233;DHT22;6179;51.748;8.728;2024-01-15T07:00:19;0.90;98.30
12233;DHT22;6179;51.748;8.728;2024-01-15T07:06:20;0.90;98.30
12233;DHT22;6179;51.748;8.728;2024-01-15T07:12:21;1.00;98.30
12233;DHT22;6179;51.748;8.728;2024-01-15T07:18:22;1.00;98.30
12233;DHT22;6179;51.748;8.728;2024-01-15T07:24:23;1.00;98.30
12233;DHT22;6179;51.748;8.728;2024-01-15T07:30:24;1.00;98.30
12233;DHT22;6179;51.748;8.728;2024-01-15T07:36:25;1.00;98.30
12233;DHT22;6179;51.748;8.728;2024-01-15T07:42:25;0.90;98.30
12233;DHT22;6179;51.748;8.728;2024-01-15T07:48:27;1.00;98.30
12233;DHT22;6179;51.748;8.728;2024-01-15T07:54:28;1.00;98.30
12233;DHT22;6179;51.748;8.728;2024-01-15T08:00:28;1.10;98.30
12233;DHT22;6179;51.748;8.728;2024-01-15T08:06:29;1.20;98.30
12233;DHT22;6179;51.748;8.728;2024-01-15T08:12:30;1.00;98.30
12233;DHT22;6179;51.748;8.728;2024-01-15T08:18:31;1.10;98.30
12233;DHT22;6179;51.748;8.728;2024-01-15T08:24:31;0.90;98.30
12233;DHT22;6179;51.748;8.728;2024-01-15T08:30:32;1.10;98.30
12233;DHT22;6179;51.748;8.728;2024-01-15T08:36:33;0.90;98.30
12233;DHT22;6179;51.748;8.728;2024-01-15T08:42:35;1.10;98.30
12233;DHT22;6179;51.748;8.728;2024-01-15T08:48:36;0.80;98.30
12233;DHT22;6179;51.748;8.728;2024-01-15T08:54:37;0.80;98.30
12233;DHT22;6179;51.748;8.728;2024-01-15T09:00:38;0.90;98.30
12233;DHT22;6179;51.748;8.728;2024-01-15T09:06:39;1.00;98.30
12233;DHT22;6179;51.748;8.728;2024-01-15T09:12:39;0.80;98.30
12233;DHT22;6179;51.748;8.728;2024-01-15T09:18:40;0.80;98.30
12233;DHT22;6179;51.748;8.728;2024-01-15T09:24:41;0.90;98.30
12233;DHT22;6179;51.748;8.728;2024-01-15T09:30:42;1.00;98.30
12233;DHT22;6179;51.748;8.728;2024-01-15T09:36:43;1.10;98.30
12233;DHT22;6179;51.748;8.728;2024-01-15T09:42:44;1.00;98.30
12233;DHT22;6179;51.748;8.728;2024-01-15T09:48:46;1.30;98.30
12233;DHT22;6179;51.748;8.728;2024-01-15T09:54:48;1.10;98.30
12233;DHT22;6179;51.748;8.728;2024-01-15T10:00:51;1.00;98.30
12233;DHT22;6179;51.748;8.728;2024-01-15T10:06:53;1.20;98.30
12233;DHT22;6179;51.748;8.728;2024-01-15T10:12:56;1.30;98.30
12233;DHT22;6179;51.748;8.728;2024-01-15T10:18:58;1.10;98.30
12233;DHT22;6179;51.748;8.728;2024-01-15T10:24:59;1.10;98.30
12233;DHT22;6179;51.748;8.728;2024-01-15T10:31:01;1.30;98.30
12233;DHT22;6179;51.748;8.728;2024-01-15T10:37:02;1.50;98.30
12233;DHT22;6179;51.748;8.728;2024-01-15T10:43:03;1.40;98.30
12233;DHT22;6179;51.748;8.728;2024-01-15T10:49:05;1.50;98.30
12233;DHT22;6179;51.748;8.728;2024-01-15T10:55:09;1.40;98.30
12233;DHT22;6179;51.748;8.728;2024-01-15T11:01:12;1.30;98.30
12233;DHT22;6179;51.748;8.728;2024-01-15T11:07:14;1.30;98.30
12233;DHT22;6179;51.748;8.728;2024-01-15T11:19:46;1.40;98.30
12233;DHT22;6179;51.748;8.728;2024-01-15T11:25:50;1.50;98.30
12233;DHT22;6179;51.748;8.728;2024-01-15T11:43:56;1.50;98.30
12233;DHT22;6179;51.748;8.728;2024-01-15T11:56:14;1.50;98.30
12233;DHT22;6179;51.748;8.728;2024-01-15T12:02:17;1.60;98.30
12233;DHT22;6179;51.748;8.728;2024-01-15T12:08:22;1.60;98.30
12233;DHT22;6179;51.748;8.728;2024-01-15T12:14:24;1.40;98.30
12233;DHT22;6179;51.748;8.728;2024-01-15T12:20:26;1.50;98.30
12233;DHT22;6179;51.748;8.728;2024-01-15T12:26:27;1.40;98.30
12233;DHT22;6179;51.748;8.728;2024-01-15T12:32:29;1.30;98.30
12233;DHT22;6179;51.748;8.728;2024-01-15T12:38:30;1.70;98.30
12233;DHT22;6179;51.748;8.728;2024-01-15T12:44:30;1.60;98.30
12233;DHT22;6179;51.748;8.728;2024-01-15T12:50:33;1.50;98.30
12233;DHT22;6179;51.748;8.728;2024-01-15T12:56:35;1.50;98.30
12233;DHT22;6179;51.748;8.728;2024-01-15T13:02:36;1.80;98.30
12233;DHT22;6179;51.748;8.728;2024-01-15T13:08:37;1.50;98.30
12233;DHT22;6179;51.748;8.728;2024-01-15T13:14:38;1.80;98.30
12233;DHT22;6179;51.748;8.728;2024-01-15T13:20:38;1.50;98.30
12233;DHT22;6179;51.748;8.728;2024-01-15T13:26:39;1.50;98.30
12233;DHT22;6179;51.748;8.728;2024-01-15T13:32:40;1.90;98.30
12233;DHT22;6179;51.748;8.728;2024-01-15T13:38:41;1.70;98.30
12233;DHT22;6179;51.748;8.728;2024-01-15T13:44:42;1.70;98.30
12233;DHT22;6179;51.748;8.728;2024-01-15T13:50:43;1.80;98.30
12233;DHT22;6179;51.748;8.728;2024-01-15T13:56:44;1.60;98.30
12233;DHT22;6179;51.748;8.728;2024-01-15T14:02:44;1.40;98.30
12233;DHT22;6179;51.748;8.728;2024-01-15T14:08:45;1.50;98.30
12233;DHT22;6179;51.748;8.728;2024-01-15T14:14:47;1.30;98.30
12233;DHT22;6179;51.748;8.728;2024-01-15T14:20:48;1.30;98.30
12233;DHT22;6179;51.748;8.728;2024-01-15T14:26:49;1.20;98.30
12233;DHT22;6179;51.748;8.728;2024-01-15T14:32:49;1.10;98.30
12233;DHT22;6179;51.748;8.728;2024-01-15T14:38:50;1.00;98.30
12233;DHT22;6179;51.748;8.728;2024-01-15T14:44:51;1.10;98.30
12233;DHT22;6179;51.748;8.728;2024-01-15T14:50:52;1.10;98.30
12233;DHT22;6179;51.748;8.728;2024-01-15T14:56:52;1.10;98.30
12233;DHT22;6179;51.748;8.728;2024-01-15T15:02:53;1.10;98.30
12233;DHT22;6179;51.748;8.728;2024-01-15T15:08:54;1.20;98.30
12233;DHT22;6179;51.748;8.728;2024-01-15T15:14:55;1.40;98.30
12233;DHT22;6179;51.748;8.728;2024-01-15T15:20:56;1.10;98.30
12233;DHT22;6179;51.748;8.728;2024-01-15T15:26:57;1.00;98.30
12233;DHT22;6179;51.748;8.728;2024-01-15T15:32:58;1.00;98.30
12233;DHT22;6179;51.748;8.728;2024-01-15T15:38:59;1.10;98.30
12233;DHT22;6179;51.748;8.728;2024-01-15T15:44:59;1.10;98.30
12233;DHT22;6179;51.748;8.728;2024-01-15T15:51:00;1.10;98.30
12233;DHT22;6179;51.748;8.728;2024-01-15T15:57:03;1.00;98.30
12233;DHT22;6179;51.748;8.728;2024-01-15T16:03:04;1.10;98.30
12233;DHT22;6179;51.748;8.728;2024-01-15T16:09:05;1.10;98.30
12233;DHT22;6179;51.748;8.728;2024-01-15T16:15:22;1.10;98.30
12233;DHT22;6179;51.748;8.728;2024-01-15T16:21:23;1.00;98.30
12233;DHT22;6179;51.748;8.728;2024-01-15T16:27:24;1.10;98.30
12233;DHT22;6179;51.748;8.728;2024-01-15T16:33:26;1.00;98.30
12233;DHT22;6179;51.748;8.728;2024-01-15T16:39:27;1.00;98.30
12233;DHT22;6179;51.748;8.728;2024-01-15T16:45:29;1.00;98.30
12233;DHT22;6179;51.748;8.728;2024-01-15T16:51:30;1.00;98.30
12233;DHT22;6179;51.748;8.728;2024-01-15T16:57:30;1.20;98.30
12233;DHT22;6179;51.748;8.728;2024-01-15T17:03:31;1.10;98.30
12233;DHT22;6179;51.748;8.728;2024-01-15T17:09:32;0.90;98.30
12233;DHT22;6179;51.748;8.728;2024-01-15T17:15:33;0.80;98.30
12233;DHT22;6179;51.748;8.728;2024-01-15T17:21:34;0.90;98.30
12233;DHT22;6179;51.748;8.728;2024-01-15T17:27:34;0.80;98.30
12233;DHT22;6179;51.748;8.728;2024-01-15T17:33:35;0.70;98.30
12233;DHT22;6179;51.748;8.728;2024-01-15T17:39:36;0.80;98.30
12233;DHT22;6179;51.748;8.728;2024-01-15T17:45:38;0.70;98.30
12233;DHT22;6179;51.748;8.728;2024-01-15T17:51:38;0.80;98.30
12233;DHT22;6179;51.748;8.728;2024-01-15T17:57:39;0.90;98.30
12233;DHT22;6179;51.748;8.728;2024-01-15T18:03:40;0.80;98.30
12233;DHT22;6179;51.748;8.728;2024-01-15T18:09:41;0.90;98.30
12233;DHT22;6179;51.748;8.728;2024-01-15T18:15:41;1.00;98.30
12233;DHT22;6179;51.748;8.728;2024-01-15T18:21:42;1.10;98.30
12233;DHT22;6179;51.748;8.728;2024-01-15T18:27:43;1.10;98.30
12233;DHT22;6179;51.748;8.728;2024-01-15T18:33:44;1.00;98.30
12233;DHT22;6179;51.748;8.728;2024-01-15T18:39:45;1.00;98.30
12233;DHT22;6179;51.748;8.728;2024-01-15T18:45:46;0.90;98.30
12233;DHT22;6179;51.748;8.728;2024-01-15T18:51:46;1.10;98.30
12233;DHT22;6179;51.748;8.728;2024-01-15T18:57:54;1.00;98.30
12233;DHT22;6179;51.748;8.728;2024-01-15T19:03:56;1.00;98.30
12233;DHT22;6179;51.748;8.728;2024-01-15T19:09:57;1.00;98.30
12233;DHT22;6179;51.748;8.728;2024-01-15T19:15:58;1.00;98.30
12233;DHT22;6179;51.748;8.728;2024-01-15T19:21:59;1.10;98.30
12233;DHT22;6179;51.748;8.728;2024-01-15T19:28:00;1.10;98.30
12233;DHT22;6179;51.748;8.728;2024-01-15T19:34:03;0.90;98.30
12233;DHT22;6179;51.748;8.728;2024-01-15T19:40:05;0.70;98.30
12233;DHT22;6179;51.748;8.728;2024-01-15T19:46:07;1.00;98.30
12233;DHT22;6179;51.748;8.728;2024-01-15T19:52:09;1.00;98.30
12233;DHT22;6179;51.748;8.728;2024-01-15T19:58:09;0.90;98.30
12233;DHT22;6179;51.748;8.728;2024-01-15T20:04:10;0.90;98.30
12233;DHT22;6179;51.748;8.728;2024-01-15T20:10:11;1.00;98.30
12233;DHT22;6179;51.748;8.728;2024-01-15T20:16:13;1.00;98.30
12233;DHT22;6179;51.748;8.728;2024-01-15T20:22:14;1.00;98.30
12233;DHT22;6179;51.748;8.728;2024-01-15T20:28:15;1.00;98.30
12233;DHT22;6179;51.748;8.728;2024-01-15T20:34:15;1.00;98.30
12233;DHT22;6179;51.748;8.728;2024-01-15T20:40:16;1.40;98.30
12233;DHT22;6179;51.748;8.728;2024-01-15T20:46:17;1.30;98.30
12233;DHT22;6179;51.748;8.728;2024-01-15T20:52:18;1.10;98.30
12233;DHT22;6179;51.748;8.728;2024-01-15T20:58:25;1.10;98.30
12233;DHT22;6179;51.748;8.728;2024-01-15T21:04:26;1.10;98.30
12233;DHT22;6179;51.748;8.728;2024-01-15T21:10:27;1.10;98.30
12233;DHT22;6179;51.748;8.728;2024-01-15T21:16:27;1.30;98.30
12233;DHT22;6179;51.748;8.728;2024-01-15T21:22:29;1.10;98.30
12233;DHT22;6179;51.748;8.728;2024-01-15T21:28:30;1.10;98.30
12233;DHT22;6179;51.748;8.728;2024-01-15T21:34:31;1.20;98.30
12233;DHT22;6179;51.748;8.728;2024-01-15T21:40:32;1.10;98.30
12233;DHT22;6179;51.748;8.728;2024-01-15T21:46:33;1.10;98.30
12233;DHT22;6179;51.748;8.728;2024-01-15T21:52:36;1.30;98.30
12233;DHT22;6179;51.748;8.728;2024-01-15T21:58:37;1.20;98.30
12233;DHT22;6179;51.748;8.728;2024-01-15T22:04:38;1.30;98.30
12233;DHT22;6179;51.748;8.728;2024-01-15T22:10:39;1.20;98.30
12233;DHT22;6179;51.748;8.728;2024-01-15T22:16:41;1.30;98.30
12233;DHT22;6179;51.748;8.728;2024-01-15T22:22:41;1.20;98.30
12233;DHT22;6179;51.748;8.728;2024-01-15T22:28:42;1.10;98.30
12233;DHT22;6179;51.748;8.728;2024-01-15T22:34:43;1.10;98.30
12233;DHT22;6179;51.748;8.728;2024-01-15T22:40:44;0.90;98.30
12233;DHT22;6179;51.748;8.728;2024-01-15T22:46:44;0.90;98.30
12233;DHT22;6179;51.748;8.728;2024-01-15T22:52:45;1.10;98.30
12233;DHT22;6179;51.748;8.728;2024-01-15T22:58:46;1.10;98.30
12233;DHT22;6179;51.748;8.728;2024-01-15T23:04:47;1.20;98.30
12233;DHT22;6179;51.748;8.728;2024-01-15T23:10:48;1.10;98.30
12233;DHT22;6179;51.748;8.728;2024-01-15T23:16:49;1.10;98.30
12233;DHT22;6179;51.748;8.728;2024-01-15T23:22:50;1.10;98.30
12233;DHT22;6179;51.748;8.728;2024-01-15T23:28:50;1.00;98.30
12233;DHT22;6179;51.748;8.728;2024-01-15T23:34:51;1.10;98.30
12233;DHT22;6179;51.748;8.728;2024-01-15T23:40:52;1.00;98.30
12233;DHT22;6179;51.748;8.728;2024-01-15T23:46:53;1.30;98.30
12233;DHT22;6179;51.748;8.728;2024-01-15T23:52:53;1.00;98.30
12233;DHT22;6179;51.748;8.728;2024-01-15T23:58:54;1.10;98.30
